createdAt,value
2022-11-21T00:02:09.214Z,2.31
2022-11-21T00:04:39.049Z,2.28
2022-11-21T00:07:08.843Z,2.41
2022-11-21T00:09:38.694Z,2.29
2022-11-21T00:12:11.243Z,2.45
2022-11-21T00:14:41.008Z,2.39
2022-11-21T00:17:10.942Z,2.58
2022-11-21T00:19:40.717Z,2.60
2022-11-21T00:22:10.551Z,2.72
2022-11-21T00:24:40.587Z,2.71
2022-11-21T00:27:12.961Z,2.81
2022-11-21T00:29:42.741Z,2.72
2022-11-21T00:32:12.524Z,2.61
2022-11-21T00:34:42.332Z,2.66
2022-11-21T00:37:12.127Z,2.71
2022-11-21T00:39:41.980Z,2.88
2022-11-21T00:42:14.384Z,2.97
2022-11-21T00:44:44.192Z,2.98
2022-11-21T00:47:14.081Z,3.02
2022-11-21T00:49:43.893Z,3.08
2022-11-21T00:52:13.710Z,2.88
2022-11-21T00:54:43.493Z,2.55
2022-11-21T00:57:15.901Z,2.88
2022-11-21T00:59:45.702Z,2.88
2022-11-21T01:02:15.537Z,2.89
2022-11-21T01:04:45.422Z,2.91
2022-11-21T01:07:16.345Z,2.52
2022-11-21T01:09:46.273Z,3.05
2022-11-21T01:12:18.607Z,3.08
2022-11-21T01:14:48.396Z,2.70
2022-11-21T01:17:18.536Z,3.11
2022-11-21T01:19:48.399Z,2.94
2022-11-21T01:22:18.225Z,3.09
2022-11-21T01:24:48.010Z,3.00
2022-11-21T01:27:20.398Z,3.02
2022-11-21T01:29:50.163Z,2.98
2022-11-21T01:32:19.928Z,2.99
2022-11-21T01:34:49.724Z,2.88
2022-11-21T01:37:19.509Z,2.75
2022-11-21T01:39:49.278Z,3.04
2022-11-21T01:42:21.665Z,3.09
2022-11-21T01:44:54.511Z,3.06
2022-11-21T01:47:25.290Z,3.02
2022-11-21T01:49:56.722Z,2.93
2022-11-21T01:52:30.116Z,2.99
2022-11-21T01:55:03.083Z,2.99
2022-11-21T01:57:42.135Z,2.54
2022-11-21T02:00:16.067Z,2.69
2022-11-21T02:02:51.301Z,2.34
2022-11-21T02:05:24.828Z,2.27
2022-11-21T02:07:58.151Z,2.46
2022-11-21T02:10:28.379Z,2.50
2022-11-21T02:13:02.043Z,2.57
2022-11-21T02:15:32.712Z,2.17
2022-11-21T02:18:02.528Z,2.15
2022-11-21T02:20:33.176Z,2.51
2022-11-21T02:23:09.033Z,2.42
2022-11-21T02:25:44.044Z,2.49
2022-11-21T02:28:17.701Z,2.35
2022-11-21T02:30:47.479Z,2.40
2022-11-21T02:33:17.321Z,2.27
2022-11-21T02:35:47.239Z,2.47
2022-11-21T02:38:22.802Z,2.12
2022-11-21T02:41:07.704Z,2.38
2022-11-21T02:43:42.645Z,2.39
2022-11-21T02:46:12.471Z,2.21
2022-11-21T02:48:42.385Z,2.23
2022-11-21T02:51:12.294Z,2.25
2022-11-21T02:53:42.097Z,1.92
2022-11-21T02:56:14.773Z,2.17
2022-11-21T02:58:44.921Z,2.05
2022-11-21T03:01:14.825Z,2.16
2022-11-21T03:03:44.606Z,1.70
2022-11-21T03:06:14.382Z,2.07
2022-11-21T03:08:44.159Z,2.03
2022-11-21T03:11:16.560Z,2.09
2022-11-21T03:13:46.321Z,2.02
2022-11-21T03:16:16.162Z,1.97
2022-11-21T03:18:45.912Z,1.79
2022-11-21T03:21:15.732Z,1.95
2022-11-21T03:23:45.484Z,1.84
2022-11-21T03:26:17.917Z,1.91
2022-11-21T03:28:47.781Z,1.85
2022-11-21T03:31:17.548Z,1.81
2022-11-21T03:33:47.323Z,1.79
2022-11-21T03:36:17.102Z,1.41
2022-11-21T03:38:46.925Z,1.67
2022-11-21T03:41:35.238Z,1.76
2022-11-21T03:44:07.608Z,1.73
2022-11-21T03:46:39.733Z,1.70
2022-11-21T03:49:10.099Z,1.63
2022-11-21T03:51:40.727Z,1.28
2022-11-21T03:54:11.091Z,1.67
2022-11-21T03:56:43.506Z,1.79
2022-11-21T03:59:13.289Z,1.76
2022-11-21T04:01:43.163Z,1.36
2022-11-21T04:04:12.975Z,1.73
2022-11-21T04:06:42.762Z,1.75
2022-11-21T04:09:12.637Z,1.74
2022-11-21T04:11:45.028Z,1.40
2022-11-21T04:14:14.805Z,1.79
2022-11-21T04:16:44.586Z,1.79
2022-11-21T04:19:14.336Z,1.79
2022-11-21T04:21:44.096Z,1.65
2022-11-21T04:24:14.061Z,1.82
2022-11-21T04:26:46.418Z,1.86
2022-11-21T04:29:16.187Z,1.80
2022-11-21T04:31:45.959Z,1.79
2022-11-21T04:34:15.873Z,1.76
2022-11-21T04:36:45.668Z,1.69
2022-11-21T04:39:15.496Z,1.17
2022-11-21T04:41:47.916Z,1.72
2022-11-21T04:44:17.708Z,1.68
2022-11-21T04:46:47.486Z,1.77
2022-11-21T04:49:17.741Z,1.79
2022-11-21T04:51:47.518Z,1.73
2022-11-21T04:54:17.302Z,1.71
2022-11-21T04:56:49.765Z,1.48
2022-11-21T04:59:19.544Z,1.48
2022-11-21T05:01:49.312Z,1.73
2022-11-21T05:04:19.122Z,1.74
2022-11-21T05:06:48.870Z,1.75
2022-11-21T05:09:18.645Z,1.65
2022-11-21T05:12:03.449Z,1.68
2022-11-21T05:14:33.289Z,1.63
2022-11-21T05:17:03.077Z,1.50
2022-11-21T05:19:33.153Z,1.48
2022-11-21T05:22:02.934Z,1.60
2022-11-21T05:24:32.736Z,1.53
2022-11-21T05:27:05.278Z,1.59
2022-11-21T05:29:36.043Z,1.52
2022-11-21T05:32:05.822Z,1.52
2022-11-21T05:34:35.622Z,1.44
2022-11-21T05:37:05.441Z,1.50
2022-11-21T05:39:35.281Z,1.48
2022-11-21T05:42:07.749Z,1.20
2022-11-21T05:44:34.909Z,1.37
2022-11-21T05:47:04.681Z,1.43
2022-11-21T05:49:34.490Z,1.53
2022-11-21T05:52:04.388Z,1.51
2022-11-21T05:54:36.213Z,1.57
2022-11-21T05:57:08.649Z,1.52
2022-11-21T05:59:38.556Z,1.51
2022-11-21T06:02:26.095Z,1.47
2022-11-21T06:04:55.962Z,1.43
2022-11-21T06:07:25.863Z,1.20
2022-11-21T06:09:55.660Z,1.37
2022-11-21T06:12:28.130Z,1.40
2022-11-21T06:14:57.966Z,1.28
2022-11-21T06:17:27.837Z,1.25
2022-11-21T06:19:59.643Z,1.09
2022-11-21T06:22:29.453Z,1.14
2022-11-21T06:24:59.254Z,0.65
2022-11-21T06:27:31.886Z,1.09
2022-11-21T06:30:01.765Z,1.08
2022-11-21T06:32:32.663Z,1.06
2022-11-21T06:35:02.511Z,1.03
2022-11-21T06:37:33.492Z,1.03
2022-11-21T06:40:07.666Z,1.00
2022-11-21T06:42:40.576Z,1.00
2022-11-21T06:45:11.431Z,0.97
2022-11-21T06:47:41.272Z,0.96
2022-11-21T06:50:13.595Z,0.90
2022-11-21T06:52:43.399Z,0.94
2022-11-21T06:55:14.273Z,0.71
2022-11-21T06:57:50.247Z,0.99
2022-11-21T07:00:23.313Z,0.89
2022-11-21T07:02:56.542Z,0.97
2022-11-21T07:05:30.192Z,0.98
2022-11-21T07:08:01.373Z,0.99
2022-11-21T07:10:32.920Z,0.99
2022-11-21T07:13:24.836Z,0.98
2022-11-21T07:15:57.159Z,0.98
2022-11-21T07:18:27.998Z,1.01
2022-11-21T07:21:01.193Z,1.06
2022-11-21T07:23:31.901Z,1.00
2022-11-21T07:26:03.594Z,1.00
2022-11-21T07:28:39.329Z,1.06
2022-11-21T07:31:13.490Z,1.07
2022-11-21T07:33:46.901Z,1.04
2022-11-21T07:36:16.979Z,0.61
2022-11-21T07:38:49.063Z,1.00
2022-11-21T07:41:19.893Z,1.08
2022-11-21T07:43:52.297Z,1.02
2022-11-21T07:46:22.250Z,1.10
2022-11-21T07:48:52.336Z,1.10
2022-11-21T07:51:25.049Z,1.14
2022-11-21T07:53:54.868Z,0.82
2022-11-21T07:56:26.663Z,1.03
2022-11-21T07:59:01.198Z,1.12
2022-11-21T08:01:31.143Z,0.97
2022-11-21T08:04:02.276Z,0.82
2022-11-21T08:06:32.137Z,1.35
2022-11-21T08:09:01.981Z,1.57
2022-11-21T08:11:33.851Z,1.41
2022-11-21T08:14:06.654Z,1.44
2022-11-21T08:16:37.554Z,1.44
2022-11-21T08:19:07.937Z,1.41
2022-11-21T08:21:37.805Z,1.47
2022-11-21T08:24:13.521Z,1.48
2022-11-21T08:26:47.363Z,1.54
2022-11-21T08:29:20.109Z,1.16
2022-11-21T08:31:50.018Z,1.57
2022-11-21T08:34:20.856Z,1.27
2022-11-21T08:36:50.705Z,1.65
2022-11-21T08:39:20.492Z,1.72
2022-11-21T08:42:02.755Z,1.70
2022-11-21T08:44:37.244Z,1.84
2022-11-21T08:47:10.676Z,1.90
2022-11-21T08:49:40.557Z,1.92
2022-11-21T08:52:13.644Z,2.80
2022-11-21T08:54:44.251Z,2.93
2022-11-21T08:57:14.181Z,2.47
2022-11-21T08:59:46.601Z,2.50
2022-11-21T09:02:17.424Z,2.04
2022-11-21T09:04:50.697Z,2.31
2022-11-21T09:07:20.624Z,2.32
2022-11-21T09:09:50.527Z,2.24
2022-11-21T09:12:20.498Z,2.03
2022-11-21T09:15:05.492Z,2.09
2022-11-21T09:17:49.923Z,1.97
2022-11-21T09:20:20.035Z,1.86
2022-11-21T09:22:49.887Z,1.93
2022-11-21T09:25:19.890Z,2.02
2022-11-21T09:27:49.720Z,2.03
2022-11-21T09:30:22.346Z,2.04
2022-11-21T09:32:52.996Z,1.59
2022-11-21T09:35:23.197Z,2.13
2022-11-21T09:37:53.712Z,2.15
2022-11-21T09:40:25.956Z,2.01
2022-11-21T09:43:21.974Z,2.17
2022-11-21T09:45:59.142Z,2.15
2022-11-21T09:48:34.416Z,2.26
2022-11-21T09:51:10.336Z,2.31
2022-11-21T09:53:53.371Z,2.34
2022-11-21T09:56:26.110Z,2.38
2022-11-21T09:59:11.614Z,2.49
2022-11-21T10:01:44.099Z,2.50
2022-11-21T10:04:13.949Z,2.03
2022-11-21T10:06:54.389Z,2.39
2022-11-21T10:09:31.220Z,2.48
2022-11-21T10:12:22.346Z,2.58
2022-11-21T10:15:05.249Z,2.75
2022-11-21T10:17:50.464Z,2.77
2022-11-21T10:20:37.001Z,2.28
2022-11-21T10:23:22.726Z,2.62
2022-11-21T10:25:59.129Z,2.78
2022-11-21T10:28:39.815Z,2.86
2022-11-21T10:31:13.705Z,2.98
2022-11-21T10:33:46.956Z,3.44
2022-11-21T10:36:25.939Z,3.63
2022-11-21T10:39:01.260Z,3.55
2022-11-21T10:41:42.920Z,3.28
2022-11-21T10:44:38.602Z,3.20
2022-11-21T10:47:27.289Z,3.05
2022-11-21T10:50:08.719Z,3.10
2022-11-21T10:52:42.651Z,3.12
2022-11-21T10:55:12.055Z,3.18
2022-11-21T10:57:46.770Z,3.18
2022-11-21T11:00:21.871Z,3.11
2022-11-21T11:03:05.084Z,3.12
2022-11-21T11:05:39.251Z,3.29
2022-11-21T11:08:11.060Z,2.97
2022-11-21T11:10:42.424Z,3.48
2022-11-21T11:13:46.966Z,3.56
2022-11-21T11:16:19.612Z,3.49
2022-11-21T11:18:54.449Z,3.54
2022-11-21T11:21:28.807Z,3.70
2022-11-21T11:24:20.369Z,3.81
2022-11-21T11:26:55.180Z,3.86
2022-11-21T11:29:26.707Z,3.86
2022-11-21T11:31:59.899Z,3.75
2022-11-21T11:34:39.691Z,3.78
2022-11-21T11:37:15.867Z,3.90
2022-11-21T11:39:58.585Z,3.78
2022-11-21T11:43:07.475Z,3.73
2022-11-21T11:46:04.110Z,3.82
2022-11-21T11:48:50.405Z,3.26
2022-11-21T11:51:30.982Z,3.81
2022-11-21T11:54:09.490Z,3.83
2022-11-21T11:56:40.790Z,3.88
2022-11-21T11:59:18.785Z,4.05
2022-11-21T12:01:54.258Z,4.12
2022-11-21T12:04:26.997Z,4.15
2022-11-21T12:08:19.968Z,4.28
2022-11-21T12:10:02.396Z,4.28
2022-11-21T12:12:39.166Z,4.46
2022-11-21T12:15:30.158Z,4.50
2022-11-21T12:18:12.832Z,4.59
2022-11-21T12:20:51.487Z,4.60
2022-11-21T12:23:30.519Z,4.60
2022-11-21T12:26:17.974Z,4.18
2022-11-21T12:29:06.078Z,4.66
2022-11-21T12:31:52.454Z,4.68
2022-11-21T12:34:37.104Z,4.76
2022-11-21T12:37:22.285Z,4.57
2022-11-21T12:40:02.864Z,4.78
2022-11-21T12:42:53.802Z,4.82
2022-11-21T12:45:34.538Z,4.84
2022-11-21T12:48:35.788Z,4.88
2022-11-21T12:51:34.229Z,4.82
2022-11-21T12:54:24.541Z,4.86
2022-11-21T12:57:03.322Z,4.78
2022-11-21T12:59:50.433Z,4.93
2022-11-21T13:02:35.715Z,4.94
2022-11-21T13:05:08.857Z,4.62
2022-11-21T13:07:40.840Z,5.04
2022-11-21T13:10:18.630Z,5.09
2022-11-21T13:12:52.843Z,4.76
2022-11-21T13:15:36.974Z,4.93
2022-11-21T13:18:22.076Z,5.05
2022-11-21T13:20:53.856Z,5.16
2022-11-21T13:23:39.494Z,5.10
2022-11-21T13:26:43.110Z,5.20
2022-11-21T13:29:14.377Z,5.17
2022-11-21T13:31:48.139Z,5.18
2022-11-21T13:34:40.933Z,5.21
2022-11-21T13:37:10.874Z,5.16
2022-11-21T13:39:41.400Z,5.09
2022-11-21T13:42:28.623Z,5.12
2022-11-21T13:45:00.892Z,5.07
2022-11-21T13:48:18.836Z,5.04
2022-11-21T13:51:23.313Z,5.18
2022-11-21T13:54:22.132Z,4.99
2022-11-21T13:57:11.366Z,5.20
2022-11-21T13:59:57.442Z,5.08
2022-11-21T14:03:07.086Z,5.24
2022-11-21T14:05:56.868Z,5.18
2022-11-21T14:08:31.769Z,5.32
2022-11-21T14:11:04.615Z,4.88
2022-11-21T14:13:40.350Z,5.37
2022-11-21T14:16:28.003Z,6.46
2022-11-21T14:19:03.690Z,6.49
2022-11-21T14:21:36.658Z,6.02
2022-11-21T14:24:18.575Z,5.56
2022-11-21T14:26:51.966Z,5.25
2022-11-21T14:29:31.156Z,5.07
2022-11-21T14:32:04.762Z,5.07
2022-11-21T14:34:40.434Z,4.83
2022-11-21T14:37:10.739Z,4.97
2022-11-21T14:39:52.766Z,4.76
2022-11-21T14:42:26.516Z,4.51
2022-11-21T14:45:09.909Z,4.42
2022-11-21T14:47:49.461Z,4.23
2022-11-21T14:50:30.895Z,4.36
2022-11-21T14:53:03.298Z,4.34
2022-11-21T14:55:36.177Z,4.50
2022-11-21T14:58:10.314Z,4.27
2022-11-21T15:03:33.984Z,4.52
2022-11-21T15:06:08.769Z,4.52
2022-11-21T15:11:39.121Z,3.71
2022-11-21T15:14:16.676Z,3.96
2022-11-21T15:16:49.153Z,3.87
2022-11-21T15:19:24.578Z,3.86
2022-11-21T15:21:59.315Z,4.12
2022-11-21T15:24:37.625Z,3.83
2022-11-21T15:27:32.886Z,3.73
2022-11-21T15:30:22.384Z,4.07
2022-11-21T15:33:11.778Z,3.93
2022-11-21T15:35:53.213Z,3.97
2022-11-21T15:38:34.918Z,4.04
2022-11-21T15:41:33.312Z,4.00
2022-11-21T15:44:25.223Z,4.08
2022-11-21T15:46:56.171Z,4.15
2022-11-21T15:49:33.601Z,4.22
2022-11-21T15:52:09.271Z,4.07
2022-11-21T15:54:42.580Z,3.96
2022-11-21T16:00:13.603Z,3.80
2022-11-21T16:02:43.462Z,3.35
2022-11-21T16:05:15.343Z,3.91
2022-11-21T16:07:48.506Z,3.96
2022-11-21T16:10:27.494Z,4.04
2022-11-21T16:13:01.818Z,4.11
2022-11-21T16:15:34.794Z,3.72
2022-11-21T16:18:07.917Z,3.84
2022-11-21T16:20:37.911Z,3.75
2022-11-21T16:23:08.137Z,4.12
2022-11-21T16:25:42.220Z,4.13
2022-11-21T16:28:14.227Z,4.03
2022-11-21T16:30:47.751Z,3.97
2022-11-21T16:33:19.726Z,3.43
2022-11-21T16:35:56.781Z,3.73
2022-11-21T16:38:28.194Z,3.86
2022-11-21T16:41:05.413Z,3.84
2022-11-21T16:43:38.882Z,3.81
2022-11-21T16:46:10.654Z,3.91
2022-11-21T16:48:41.829Z,3.90
2022-11-21T16:51:15.900Z,3.83
2022-11-21T16:53:49.127Z,3.74
2022-11-21T16:56:21.687Z,3.64
2022-11-21T16:58:55.333Z,3.51
2022-11-21T17:01:29.737Z,3.64
2022-11-21T17:04:01.026Z,3.50
2022-11-21T17:06:33.188Z,3.51
2022-11-21T17:09:03.896Z,3.52
2022-11-21T17:11:36.926Z,3.51
2022-11-21T17:14:08.910Z,3.55
2022-11-21T17:16:39.870Z,3.59
2022-11-21T17:19:16.332Z,3.48
2022-11-21T17:21:50.775Z,3.52
2022-11-21T17:24:20.846Z,3.61
2022-11-21T17:26:53.310Z,3.62
2022-11-21T17:29:23.279Z,3.63
2022-11-21T17:31:56.818Z,3.71
2022-11-21T17:34:32.537Z,3.42
2022-11-21T17:37:05.275Z,3.70
2022-11-21T17:39:39.238Z,3.56
2022-11-21T17:42:15.523Z,3.31
2022-11-21T17:44:46.973Z,3.33
2022-11-21T17:47:16.977Z,3.54
2022-11-21T17:49:48.001Z,3.29
2022-11-21T17:52:18.213Z,2.98
2022-11-21T17:54:51.818Z,2.72
2022-11-21T17:57:26.402Z,2.79
2022-11-21T17:59:59.758Z,2.28
2022-11-21T18:02:29.868Z,2.68
2022-11-21T18:05:02.072Z,3.11
2022-11-21T18:07:33.343Z,3.20
2022-11-21T18:10:27.308Z,3.25
2022-11-21T18:12:55.916Z,3.19
2022-11-21T18:15:25.976Z,3.10
2022-11-21T18:17:58.031Z,3.21
2022-11-21T18:20:29.999Z,3.14
2022-11-21T18:22:59.988Z,3.13
2022-11-21T18:25:31.266Z,3.15
2022-11-21T18:28:03.795Z,3.11
2022-11-21T18:30:34.514Z,2.65
2022-11-21T18:33:04.751Z,3.00
2022-11-21T18:35:34.794Z,2.90
2022-11-21T18:38:04.736Z,3.06
2022-11-21T18:40:34.850Z,3.06
2022-11-21T18:43:12.572Z,2.90
2022-11-21T18:45:44.535Z,2.88
2022-11-21T18:48:17.088Z,2.83
2022-11-21T18:50:47.361Z,2.84
2022-11-21T18:53:19.464Z,2.87
2022-11-21T18:55:49.494Z,2.78
2022-11-21T18:58:23.995Z,2.87
2022-11-21T19:01:02.859Z,2.87
2022-11-21T19:03:33.338Z,2.91
2022-11-21T19:06:03.513Z,2.83
2022-11-21T19:08:33.636Z,2.82
2022-11-21T19:11:05.613Z,2.91
2022-11-21T19:13:38.095Z,3.09
2022-11-21T19:16:10.506Z,3.25
2022-11-21T19:18:44.403Z,3.10
2022-11-21T19:21:18.105Z,3.42
2022-11-21T19:23:48.206Z,3.56
2022-11-21T19:26:22.959Z,3.71
2022-11-21T19:28:55.597Z,3.80
2022-11-21T19:31:28.803Z,3.87
2022-11-21T19:33:58.883Z,3.82
2022-11-21T19:36:32.774Z,3.59
2022-11-21T19:39:03.791Z,3.87
2022-11-21T19:41:33.854Z,3.88
2022-11-21T19:44:11.899Z,3.85
2022-11-21T19:46:42.620Z,3.85
2022-11-21T19:49:19.246Z,3.88
2022-11-21T19:51:49.181Z,3.75
2022-11-21T19:54:21.255Z,3.69
2022-11-21T19:56:52.413Z,3.70
2022-11-21T19:59:25.156Z,3.71
2022-11-21T20:01:55.276Z,3.65
2022-11-21T20:04:25.605Z,3.00
2022-11-21T20:06:57.497Z,3.39
2022-11-21T20:09:30.619Z,3.38
2022-11-21T20:12:04.658Z,3.32
2022-11-21T20:14:37.285Z,3.36
2022-11-21T20:17:07.395Z,3.36
2022-11-21T20:19:37.802Z,3.36
2022-11-21T20:22:07.770Z,3.47
2022-11-21T20:24:41.674Z,3.33
2022-11-21T20:27:13.384Z,3.63
2022-11-21T20:29:46.163Z,3.60
2022-11-21T20:32:19.882Z,3.56
2022-11-21T20:34:50.922Z,3.60
2022-11-21T20:37:20.931Z,3.58
2022-11-21T20:39:50.982Z,3.54
2022-11-21T20:42:23.006Z,3.61
2022-11-21T20:47:46.618Z,3.70
2022-11-21T20:50:31.640Z,3.69
2022-11-21T20:56:01.410Z,3.53
2022-11-21T20:58:33.300Z,3.39
2022-11-21T21:01:06.968Z,3.60
2022-11-21T21:03:38.873Z,3.67
2022-11-21T21:06:11.953Z,3.76
2022-11-21T21:08:43.338Z,3.77
2022-11-21T21:11:36.710Z,3.88
2022-11-21T21:14:05.264Z,3.94
2022-11-21T21:16:37.786Z,4.06
2022-11-21T21:19:07.908Z,4.05
2022-11-21T21:21:37.817Z,3.51
2022-11-21T21:24:17.304Z,4.11
2022-11-21T21:26:49.181Z,4.09
2022-11-21T21:29:21.573Z,4.08
2022-11-21T21:31:59.482Z,4.09
2022-11-21T21:34:29.673Z,4.10
2022-11-21T21:36:59.856Z,4.06
2022-11-21T21:39:30.022Z,4.12
2022-11-21T21:42:00.129Z,4.14
2022-11-21T21:44:33.285Z,4.23
2022-11-21T21:47:07.165Z,4.20
2022-11-21T21:49:40.935Z,4.11
2022-11-21T21:52:12.053Z,4.22
2022-11-21T21:54:42.147Z,4.24
2022-11-21T21:57:12.282Z,4.16
2022-11-21T21:59:42.243Z,3.80
2022-11-21T22:02:16.215Z,4.16
2022-11-21T22:04:51.824Z,3.99
2022-11-21T22:07:28.614Z,4.09
2022-11-21T22:10:03.016Z,4.02
2022-11-21T22:12:32.986Z,4.13
2022-11-21T22:15:03.969Z,4.12
2022-11-21T22:17:36.506Z,4.21
2022-11-21T22:20:07.168Z,4.19
2022-11-21T22:22:37.046Z,4.18
2022-11-21T22:25:07.631Z,4.10
2022-11-21T22:27:38.489Z,4.00
2022-11-21T22:30:10.740Z,3.23
2022-11-21T22:32:43.201Z,4.06
2022-11-21T22:35:16.896Z,3.88
2022-11-21T22:37:46.906Z,3.94
2022-11-21T22:40:17.534Z,3.96
2022-11-21T22:42:50.867Z,3.86
2022-11-21T22:45:20.913Z,3.78
2022-11-21T22:47:54.759Z,3.70
2022-11-21T22:50:24.669Z,3.68
2022-11-21T22:52:58.206Z,3.41
2022-11-21T22:55:28.079Z,3.83
2022-11-21T22:58:00.585Z,3.70
2022-11-21T23:00:33.137Z,3.78
2022-11-21T23:03:05.617Z,3.72
2022-11-21T23:05:35.493Z,3.79
2022-11-21T23:08:05.410Z,3.74
2022-11-21T23:10:35.353Z,3.67
2022-11-21T23:13:08.834Z,3.83
2022-11-21T23:15:40.795Z,3.85
2022-11-21T23:18:13.304Z,3.90
2022-11-21T23:20:46.206Z,3.87
2022-11-21T23:23:17.109Z,3.45
2022-11-21T23:25:46.968Z,3.80
2022-11-21T23:28:17.872Z,3.93
2022-11-21T23:30:49.034Z,3.85
2022-11-21T23:33:21.641Z,3.73
2022-11-21T23:35:51.682Z,3.37
2022-11-21T23:38:21.959Z,3.50
2022-11-21T23:40:52.710Z,3.77
2022-11-21T23:43:22.563Z,3.80
2022-11-21T23:45:53.130Z,3.75
2022-11-21T23:48:26.347Z,3.79
2022-11-21T23:50:56.227Z,3.70
2022-11-21T23:53:26.089Z,3.66
2022-11-21T23:55:56.048Z,3.86
2022-11-21T23:58:25.877Z,4.03
